Time;durP1;ratioP1;P1;durP2;ratioP2;P2;SDS_P1;SDS_P2;PMS_P1;PMS_P2;Temp;Humidity;BMP_temperature;BMP_pressure;BME280_temperature;BME280_humidity;BME280_pressure;Samples;Min_cycle;Max_cycle;Signal;HPM_P1;HPM_P2
2023/10/29 00:00:48;;;;;;;6.57;3.13;;;12.00;99.90;;;;;;5074256;28;20704;-63
2023/10/29 00:03:13;;;;;;;5.88;3.50;;;12.00;99.90;;;;;;5074370;28;20205;-63
2023/10/29 00:05:40;;;;;;;5.50;3.85;;;12.00;99.90;;;;;;5060836;28;20185;-62
2023/10/29 00:08:08;;;;;;;4.20;3.45;;;12.00;99.90;;;;;;5054386;28;20170;-64
2023/10/29 00:10:35;;;;;;;4.85;3.45;;;12.10;99.90;;;;;;5053861;28;20667;-61
2023/10/29 00:13:01;;;;;;;6.97;3.42;;;12.10;99.90;;;;;;5054496;28;20236;-63
2023/10/29 00:15:27;;;;;;;4.72;3.45;;;12.10;99.90;;;;;;5054562;28;20220;-63
2023/10/29 00:17:53;;;;;;;5.20;3.33;;;12.20;99.90;;;;;;5054053;28;20178;-62
2023/10/29 00:20:19;;;;;;;4.00;3.20;;;12.20;99.90;;;;;;5052723;28;20178;-63
2023/10/29 00:22:45;;;;;;;6.72;3.25;;;12.20;99.90;;;;;;5054566;28;20202;-63
2023/10/29 00:25:11;;;;;;;4.40;3.30;;;12.20;99.90;;;;;;5053537;28;20170;-62
2023/10/29 00:27:36;;;;;;;8.07;3.35;;;12.20;99.90;;;;;;5054141;28;20167;-63
2023/10/29 00:30:03;;;;;;;7.20;3.40;;;12.20;99.90;;;;;;5074285;28;20182;-63
2023/10/29 00:32:28;;;;;;;3.92;3.10;;;12.30;99.90;;;;;;5073898;28;20288;-63
2023/10/29 00:34:54;;;;;;;4.55;2.88;;;12.30;99.90;;;;;;5066439;28;20272;-62
2023/10/29 00:37:20;;;;;;;6.32;3.20;;;12.30;99.90;;;;;;5053810;28;20186;-63
2023/10/29 00:39:46;;;;;;;7.15;3.50;;;12.30;99.90;;;;;;5053862;28;20175;-63
2023/10/29 00:42:12;;;;;;;4.65;3.08;;;12.30;99.90;;;;;;5052648;28;20671;-63
2023/10/29 00:44:38;;;;;;;7.93;3.15;;;12.30;99.90;;;;;;5053677;28;20547;-63
2023/10/29 00:47:05;;;;;;;4.30;3.30;;;12.30;99.90;;;;;;5053802;28;20643;-63
2023/10/29 00:49:31;;;;;;;3.83;3.30;;;12.30;99.90;;;;;;5053171;28;20178;-63
2023/10/29 00:51:57;;;;;;;6.80;3.45;;;12.30;99.90;;;;;;5052417;28;20205;-62
2023/10/29 00:54:23;;;;;;;5.30;3.17;;;12.30;99.90;;;;;;5053663;28;20175;-63
2023/10/29 00:56:49;;;;;;;5.25;3.65;;;12.40;99.90;;;;;;5053511;28;20178;-62
2023/10/29 00:59:15;;;;;;;6.57;3.47;;;12.40;99.90;;;;;;5067492;28;20186;-63
2023/10/29 01:01:41;;;;;;;3.35;3.05;;;12.40;99.90;;;;;;5073124;28;20280;-62
2023/10/29 01:04:07;;;;;;;6.88;3.50;;;12.50;99.90;;;;;;5072519;28;20217;-63
2023/10/29 01:06:38;;;;;;;3.53;3.17;;;12.50;99.90;;;;;;5053357;28;20178;-63
2023/10/29 01:09:07;;;;;;;3.67;3.20;;;12.40;99.90;;;;;;5052235;28;20175;-64
2023/10/29 01:11:33;;;;;;;4.63;2.97;;;12.50;99.90;;;;;;5052968;28;20190;-64
2023/10/29 01:14:01;;;;;;;7.63;3.38;;;12.50;99.90;;;;;;5052370;28;20178;-63
2023/10/29 01:16:28;;;;;;;4.55;3.10;;;12.60;99.90;;;;;;5053836;28;20178;-62
2023/10/29 01:18:55;;;;;;;4.18;2.97;;;12.60;99.90;;;;;;5053232;28;20228;-64
2023/10/29 01:21:22;;;;;;;4.82;2.95;;;12.70;99.90;;;;;;5053131;28;20686;-63
2023/10/29 01:23:48;;;;;;;3.42;2.90;;;12.70;99.90;;;;;;5053479;28;20201;-63
2023/10/29 01:26:13;;;;;;;7.55;3.00;;;12.80;99.90;;;;;;5052824;28;20166;-63
2023/10/29 01:28:39;;;;;;;7.75;3.10;;;12.80;99.90;;;;;;5060934;28;20181;-62
2023/10/29 01:31:06;;;;;;;5.25;3.30;;;12.90;99.90;;;;;;5073025;28;20185;-63
2023/10/29 01:33:32;;;;;;;5.47;3.05;;;12.90;99.90;;;;;;5073324;28;20311;-63
2023/10/29 01:35:58;;;;;;;4.28;2.97;;;12.80;99.90;;;;;;5056992;28;20265;-62
2023/10/29 01:38:23;;;;;;;4.15;2.85;;;12.80;99.90;;;;;;5053099;28;20182;-63
2023/10/29 01:40:49;;;;;;;5.10;2.80;;;12.80;99.90;;;;;;5052711;28;20663;-62
2023/10/29 01:43:16;;;;;;;4.47;3.00;;;12.80;99.90;;;;;;5053532;28;20225;-62
2023/10/29 01:45:41;;;;;;;3.58;3.20;;;12.80;99.90;;;;;;5051865;28;20179;-61
2023/10/29 01:48:07;;;;;;;6.78;3.03;;;12.80;99.90;;;;;;5051872;28;20174;-61
2023/10/29 01:50:33;;;;;;;3.05;2.75;;;12.90;99.90;;;;;;5052918;28;20191;-63
2023/10/29 01:52:59;;;;;;;4.68;3.15;;;12.90;99.90;;;;;;5053497;28;20558;-61
2023/10/29 01:55:25;;;;;;;3.35;2.75;;;12.90;99.90;;;;;;5052987;28;20197;-62
2023/10/29 01:57:51;;;;;;;6.45;3.08;;;12.90;99.90;;;;;;5055448;28;20664;-63
2023/10/29 02:00:16;;;;;;;5.60;3.10;;;12.90;99.90;;;;;;5072857;28;20201;-63
2023/10/29 02:02:44;;;;;;;7.90;3.40;;;12.90;99.90;;;;;;5076727;28;20625;-63
2023/10/29 02:05:10;;;;;;;4.07;3.15;;;12.90;99.90;;;;;;5066004;28;20634;-61
2023/10/29 02:07:36;;;;;;;4.30;3.03;;;12.90;99.90;;;;;;5057127;28;20198;-62
2023/10/29 02:10:02;;;;;;;3.53;2.83;;;13.00;99.90;;;;;;5056875;28;20647;-62
2023/10/29 02:12:28;;;;;;;4.32;2.70;;;13.10;99.90;;;;;;5057111;28;20202;-63
2023/10/29 02:14:54;;;;;;;3.78;2.95;;;13.10;99.90;;;;;;5056499;28;20214;-63
2023/10/29 02:17:23;;;;;;;3.72;2.80;;;13.10;99.90;;;;;;5055088;28;20185;-62
2023/10/29 02:19:49;;;;;;;3.03;2.75;;;13.10;99.90;;;;;;5055102;28;20180;-62
2023/10/29 02:22:15;;;;;;;6.15;2.85;;;13.20;99.90;;;;;;5056244;28;20553;-62
2023/10/29 02:24:41;;;;;;;5.30;2.88;;;13.20;99.90;;;;;;5056404;28;20259;-63
2023/10/29 02:27:06;;;;;;;3.30;3.00;;;13.20;99.90;;;;;;5056380;28;20174;-61
2023/10/29 02:29:32;;;;;;;6.03;2.70;;;13.20;99.90;;;;;;5071209;28;20272;-64
2023/10/29 02:31:58;;;;;;;3.95;3.30;;;13.10;99.90;;;;;;5076790;28;20273;-63
2023/10/29 02:34:24;;;;;;;5.57;2.75;;;13.10;99.90;;;;;;5072940;28;20182;-64
2023/10/29 02:36:49;;;;;;;4.18;2.85;;;13.00;99.90;;;;;;5056262;28;20170;-62
2023/10/29 02:39:15;;;;;;;2.63;2.42;;;13.00;99.90;;;;;;5054887;28;20262;-63
2023/10/29 02:41:41;;;;;;;3.75;2.78;;;13.00;99.90;;;;;;5055626;28;20186;-63
2023/10/29 02:44:07;;;;;;;3.53;2.70;;;13.00;99.90;;;;;;5054472;28;20260;-62
2023/10/29 02:46:36;;;;;;;5.65;2.97;;;13.00;99.90;;;;;;5056011;28;20175;-63
2023/10/29 02:49:01;;;;;;;3.58;2.90;;;12.90;99.90;;;;;;5055796;28;20198;-63
2023/10/29 02:51:27;;;;;;;4.93;2.88;;;12.80;99.90;;;;;;5054535;28;20618;-63
2023/10/29 02:53:53;;;;;;;5.00;3.55;;;12.70;99.90;;;;;;5056007;28;20249;-62
2023/10/29 02:56:19;;;;;;;5.95;2.90;;;12.60;99.90;;;;;;5055530;28;20267;-63
2023/10/29 02:58:44;;;;;;;5.82;3.20;;;12.60;99.90;;;;;;5065264;28;20189;-63
2023/10/29 03:01:10;;;;;;;5.65;2.80;;;12.50;99.90;;;;;;5075409;28;20209;-63
2023/10/29 03:03:37;;;;;;;3.70;2.80;;;12.50;99.90;;;;;;5075543;28;20335;-62
2023/10/29 03:06:06;;;;;;;4.38;2.90;;;12.50;99.90;;;;;;5058793;28;20182;-62
2023/10/29 03:08:33;;;;;;;4.72;2.80;;;12.50;99.90;;;;;;5055442;28;20559;-63
2023/10/29 03:10:59;;;;;;;3.00;2.60;;;12.60;99.90;;;;;;5055071;28;20191;-63
2023/10/29 03:13:25;;;;;;;5.75;3.10;;;12.60;99.90;;;;;;5055769;28;20178;-62
2023/10/29 03:15:51;;;;;;;4.22;2.90;;;12.60;99.90;;;;;;5055338;28;20284;-62
2023/10/29 03:18:17;;;;;;;3.00;2.70;;;12.60;99.90;;;;;;5055394;28;20194;-63
2023/10/29 03:20:43;;;;;;;4.15;2.95;;;12.60;99.90;;;;;;5054025;28;20622;-64
2023/10/29 03:23:09;;;;;;;3.10;2.80;;;12.60;99.90;;;;;;5055519;28;20281;-63
2023/10/29 03:25:35;;;;;;;4.57;2.83;;;12.60;99.90;;;;;;5055142;28;20163;-63
2023/10/29 03:28:01;;;;;;;4.20;3.05;;;12.60;99.90;;;;;;5058608;28;20672;-63
2023/10/29 03:30:27;;;;;;;2.72;2.50;;;12.60;99.90;;;;;;5075018;28;20183;-63
2023/10/29 03:32:52;;;;;;;5.57;2.90;;;12.60;99.90;;;;;;5075045;28;20177;-63
2023/10/29 03:35:18;;;;;;;4.63;2.72;;;12.60;99.90;;;;;;5064329;28;20709;-64
2023/10/29 03:37:44;;;;;;;5.57;2.83;;;12.60;99.90;;;;;;5055064;28;20194;-63
2023/10/29 03:40:10;;;;;;;8.75;3.40;;;12.60;99.90;;;;;;5054854;28;20165;-63
2023/10/29 03:42:36;;;;;;;3.10;2.80;;;12.70;99.90;;;;;;5054916;28;20560;-62
2023/10/29 03:45:03;;;;;;;2.78;2.50;;;12.80;99.90;;;;;;5054874;28;20178;-63
2023/10/29 03:47:29;;;;;;;5.53;2.80;;;12.80;99.90;;;;;;5053329;28;20261;-64
2023/10/29 03:49:57;;;;;;;5.00;2.60;;;12.80;99.90;;;;;;5054923;28;20309;-63
2023/10/29 03:52:23;;;;;;;4.35;2.60;;;12.90;99.90;;;;;;5054605;28;20197;-63
2023/10/29 03:54:49;;;;;;;4.13;2.80;;;12.80;99.90;;;;;;5054511;28;20174;-62
2023/10/29 03:57:15;;;;;;;4.88;2.78;;;12.90;99.90;;;;;;5054530;28;20202;-63
2023/10/29 03:59:40;;;;;;;3.83;2.65;;;12.90;99.90;;;;;;5071733;28;20728;-61
2023/10/29 04:02:06;;;;;;;4.85;3.05;;;12.90;99.90;;;;;;5073982;28;20209;-62
2023/10/29 04:04:33;;;;;;;3.95;2.70;;;12.90;99.90;;;;;;5070002;28;20194;-63
2023/10/29 04:07:00;;;;;;;5.60;2.78;;;13.00;99.90;;;;;;5054468;28;20253;-62
2023/10/29 04:09:25;;;;;;;2.80;2.60;;;13.00;99.90;;;;;;5054118;28;20178;-63
2023/10/29 04:11:51;;;;;;;3.80;2.70;;;13.00;99.90;;;;;;5053939;28;20555;-64
2023/10/29 04:14:17;;;;;;;4.10;2.70;;;13.10;99.90;;;;;;5054721;28;20232;-62
2023/10/29 04:16:43;;;;;;;3.15;2.55;;;13.00;99.90;;;;;;5054063;28;20168;-64
2023/10/29 04:19:09;;;;;;;5.28;2.80;;;13.10;99.90;;;;;;5054098;28;20167;-63
2023/10/29 04:21:35;;;;;;;3.40;2.75;;;13.20;99.90;;;;;;5053971;28;20255;-62
2023/10/29 04:24:00;;;;;;;3.28;2.85;;;13.30;99.90;;;;;;5053173;28;20190;-63
2023/10/29 04:26:26;;;;;;;3.45;2.60;;;13.30;99.90;;;;;;5053818;28;20227;-62
2023/10/29 04:28:52;;;;;;;3.05;2.75;;;13.30;99.90;;;;;;5064527;28;20177;-64
2023/10/29 04:31:18;;;;;;;4.47;2.95;;;13.30;99.90;;;;;;5073899;28;20186;-64
2023/10/29 04:33:48;;;;;;;2.90;2.60;;;13.30;99.90;;;;;;5073938;28;20169;-63
2023/10/29 04:36:24;;;;;;;4.07;2.70;;;13.20;99.90;;;;;;5054191;28;20189;-64
2023/10/29 04:38:50;;;;;;;6.70;2.55;;;13.30;99.90;;;;;;5053819;28;20204;-64
2023/10/29 04:41:17;;;;;;;3.10;2.78;;;13.30;99.90;;;;;;5052090;28;20244;-63
2023/10/29 04:43:42;;;;;;;3.95;2.80;;;13.30;99.90;;;;;;5053642;28;20221;-64
2023/10/29 04:46:15;;;;;;;4.00;2.38;;;13.30;99.90;;;;;;5054178;28;20236;-65
2023/10/29 04:48:41;;;;;;;4.45;2.75;;;13.30;99.90;;;;;;5054699;28;20553;-64
2023/10/29 04:51:07;;;;;;;3.90;2.80;;;13.30;99.90;;;;;;5053547;28;20190;-64
2023/10/29 04:53:34;;;;;;;2.60;2.40;;;13.30;99.90;;;;;;5053646;28;20206;-63
2023/10/29 04:56:00;;;;;;;3.42;2.60;;;13.40;99.90;;;;;;5053327;28;20179;-63
2023/10/29 04:58:26;;;;;;;2.88;2.45;;;13.40;99.90;;;;;;5060447;28;20177;-63
2023/10/29 05:00:52;;;;;;;2.70;2.40;;;13.50;99.90;;;;;;5073070;28;20213;-63
2023/10/29 05:03:18;;;;;;;2.92;2.63;;;13.60;99.90;;;;;;5071949;28;20194;-62
2023/10/29 05:05:44;;;;;;;3.63;3.00;;;13.60;99.90;;;;;;5058970;28;20197;-64
2023/10/29 05:08:10;;;;;;;3.78;2.50;;;13.60;99.90;;;;;;5053395;28;20562;-63
2023/10/29 05:10:36;;;;;;;4.03;2.47;;;13.60;99.90;;;;;;5052996;28;20216;-63
2023/10/29 05:13:02;;;;;;;2.92;2.60;;;13.70;99.90;;;;;;5053137;28;20249;-62
2023/10/29 05:15:28;;;;;;;2.60;2.40;;;13.70;99.90;;;;;;5053022;28;20186;-63
2023/10/29 05:17:54;;;;;;;2.78;2.58;;;13.70;99.90;;;;;;5053316;28;20158;-64
2023/10/29 05:20:20;;;;;;;3.28;2.50;;;13.70;99.90;;;;;;5053468;28;20301;-64
2023/10/29 05:22:46;;;;;;;3.17;2.40;;;13.70;99.90;;;;;;5052993;28;20690;-64
2023/10/29 05:25:12;;;;;;;2.95;2.28;;;13.70;99.90;;;;;;5053215;28;20258;-64
2023/10/29 05:27:38;;;;;;;7.55;2.90;;;13.60;99.90;;;;;;5052187;28;20185;-64
2023/10/29 05:30:07;;;;;;;5.30;2.60;;;13.60;99.90;;;;;;5071784;28;20174;-63
2023/10/29 05:32:33;;;;;;;2.88;2.60;;;13.60;99.90;;;;;;5073501;28;20228;-64
2023/10/29 05:34:59;;;;;;;2.72;2.50;;;13.60;99.90;;;;;;5066134;28;20210;-62
2023/10/29 05:37:25;;;;;;;5.68;2.83;;;13.60;99.90;;;;;;5056995;28;20292;-62
2023/10/29 05:39:51;;;;;;;2.67;2.47;;;13.70;99.90;;;;;;5056991;28;20170;-63
2023/10/29 05:42:17;;;;;;;4.22;2.38;;;13.70;99.90;;;;;;5056517;28;20288;-63
2023/10/29 05:44:43;;;;;;;4.28;2.50;;;13.70;99.90;;;;;;5055551;28;20196;-64
2023/10/29 05:47:09;;;;;;;4.30;2.45;;;13.80;99.90;;;;;;5056759;28;20652;-63
2023/10/29 05:49:35;;;;;;;2.45;2.28;;;13.80;99.90;;;;;;5056688;28;20249;-65
2023/10/29 05:52:01;;;;;;;6.03;2.78;;;13.70;99.90;;;;;;5055405;28;20248;-65
2023/10/29 05:54:27;;;;;;;2.95;2.47;;;13.70;99.90;;;;;;5057258;28;20178;-63
2023/10/29 05:56:52;;;;;;;4.55;2.95;;;13.70;99.90;;;;;;5056419;28;20674;-62
2023/10/29 05:59:18;;;;;;;2.80;2.55;;;13.70;99.90;;;;;;5070848;28;20545;-62
2023/10/29 06:01:44;;;;;;;3.33;3.00;;;13.70;99.90;;;;;;5076369;28;20216;-62
2023/10/29 06:04:10;;;;;;;2.70;2.50;;;13.80;99.90;;;;;;5075118;28;20189;-62
2023/10/29 06:06:36;;;;;;;2.70;2.50;;;13.80;99.90;;;;;;5056412;28;20171;-64
2023/10/29 06:09:02;;;;;;;3.28;2.72;;;13.80;99.90;;;;;;5056877;28;20186;-65
2023/10/29 06:11:28;;;;;;;3.53;2.85;;;13.70;99.90;;;;;;5054728;28;20697;-63
2023/10/29 06:13:57;;;;;;;2.85;2.60;;;13.70;99.90;;;;;;5056352;28;20178;-62
2023/10/29 06:16:23;;;;;;;5.65;2.45;;;13.70;99.90;;;;;;5056206;28;20207;-64
2023/10/29 06:18:49;;;;;;;3.50;2.70;;;13.70;99.90;;;;;;5056141;28;20185;-64
2023/10/29 06:21:17;;;;;;;3.13;2.65;;;13.70;99.90;;;;;;5056591;28;20283;-64
2023/10/29 06:23:43;;;;;;;2.97;2.30;;;13.60;99.90;;;;;;5054763;28;20206;-63
2023/10/29 06:26:08;;;;;;;3.00;2.70;;;13.60;99.90;;;;;;5056115;28;20174;-64
2023/10/29 06:28:34;;;;;;;3.58;2.55;;;13.60;99.90;;;;;;5062995;28;20280;-64
2023/10/29 06:31:00;;;;;;;2.67;2.40;;;13.60;99.90;;;;;;5074765;28;20281;-63
2023/10/29 06:33:26;;;;;;;3.28;2.47;;;13.60;99.90;;;;;;5076252;28;20257;-64
2023/10/29 06:35:52;;;;;;;2.65;2.45;;;13.60;99.90;;;;;;5060582;28;20615;-63
2023/10/29 06:38:18;;;;;;;5.13;2.50;;;13.60;99.90;;;;;;5056118;28;20666;-63
2023/10/29 06:40:44;;;;;;;2.88;2.40;;;13.60;99.90;;;;;;5055412;28;20205;-64
2023/10/29 06:43:09;;;;;;;4.43;2.83;;;13.60;99.90;;;;;;5055709;28;20194;-63
2023/10/29 06:45:35;;;;;;;6.60;3.08;;;13.70;99.90;;;;;;5055696;28;20171;-64
2023/10/29 06:48:01;;;;;;;6.57;3.67;;;13.70;99.90;;;;;;5054833;28;20179;-62
2023/10/29 06:50:27;;;;;;;9.75;4.88;;;13.70;99.90;;;;;;5055471;28;20174;-64
2023/10/29 06:52:52;;;;;;;3.08;2.78;;;13.70;99.90;;;;;;5055573;28;20269;-62
2023/10/29 06:55:18;;;;;;;3.35;2.72;;;13.70;99.90;;;;;;5055419;28;20179;-64
2023/10/29 06:57:44;;;;;;;3.40;2.55;;;13.80;99.90;;;;;;5056545;28;20166;-64
2023/10/29 07:00:10;;;;;;;3.88;2.40;;;13.80;99.90;;;;;;5075422;28;20174;-63
2023/10/29 07:02:36;;;;;;;3.10;2.35;;;13.80;99.90;;;;;;5073842;28;20217;-64
2023/10/29 07:05:02;;;;;;;2.50;2.30;;;13.70;99.90;;;;;;5067197;28;20678;-63
2023/10/29 07:07:29;;;;;;;4.18;2.55;;;13.80;99.90;;;;;;5055293;28;20577;-64
2023/10/29 07:09:56;;;;;;;4.20;2.83;;;13.90;99.90;;;;;;5053976;28;20171;-63
2023/10/29 07:12:22;;;;;;;6.70;2.88;;;13.90;99.90;;;;;;5053649;28;20204;-64
2023/10/29 07:14:48;;;;;;;2.60;2.40;;;13.90;99.90;;;;;;5055415;28;20242;-64
2023/10/29 07:17:14;;;;;;;2.80;2.40;;;13.90;99.90;;;;;;5055088;28;20170;-64
2023/10/29 07:19:40;;;;;;;3.50;2.83;;;13.80;99.90;;;;;;5055015;28;20171;-63
2023/10/29 07:22:06;;;;;;;2.92;2.53;;;13.80;99.90;;;;;;5054892;28;20281;-65
2023/10/29 07:24:35;;;;;;;2.60;2.40;;;13.90;99.90;;;;;;5055025;28;20174;-65
2023/10/29 07:27:01;;;;;;;2.60;2.40;;;13.80;99.90;;;;;;5054752;28;20151;-65
2023/10/29 07:29:27;;;;;;;3.65;2.38;;;13.90;99.90;;;;;;5070336;28;20208;-63
2023/10/29 07:31:53;;;;;;;5.45;2.70;;;13.90;99.90;;;;;;5074756;28;20197;-62
2023/10/29 07:34:18;;;;;;;2.88;2.53;;;13.90;99.90;;;;;;5072645;28;20538;-65
2023/10/29 07:36:44;;;;;;;3.45;2.80;;;13.90;99.90;;;;;;5055016;28;20162;-63
2023/10/29 07:39:11;;;;;;;4.28;2.90;;;13.90;99.90;;;;;;5054745;28;20630;-65
2023/10/29 07:41:37;;;;;;;4.55;2.60;;;13.90;99.90;;;;;;5053045;28;20233;-64
2023/10/29 07:44:03;;;;;;;6.00;3.17;;;14.00;99.90;;;;;;5054593;28;20298;-62
2023/10/29 07:46:28;;;;;;;4.65;2.60;;;13.90;99.90;;;;;;5053371;28;20210;-63
2023/10/29 07:48:55;;;;;;;2.53;2.33;;;13.90;99.90;;;;;;5053324;28;20240;-63
2023/10/29 07:51:21;;;;;;;4.00;2.42;;;13.90;99.90;;;;;;5054489;28;20198;-63
2023/10/29 07:53:47;;;;;;;3.70;2.95;;;13.90;99.90;;;;;;5054364;28;20201;-62
2023/10/29 07:56:13;;;;;;;4.00;2.28;;;13.90;99.90;;;;;;5054545;28;20182;-66
2023/10/29 07:58:40;;;;;;;3.90;2.53;;;13.90;99.90;;;;;;5063088;28;20239;-62
2023/10/29 08:01:13;;;;;;;5.03;2.10;;;13.90;99.90;;;;;;5073985;28;20212;-62
2023/10/29 08:03:43;;;;;;;5.55;3.13;;;13.90;99.90;;;;;;5074683;28;20674;-64
2023/10/29 08:06:11;;;;;;;2.60;2.40;;;13.90;99.90;;;;;;5056539;28;20229;-62
2023/10/29 08:08:37;;;;;;;4.65;2.60;;;13.90;99.90;;;;;;5052883;28;20210;-63
2023/10/29 08:11:03;;;;;;;3.53;2.30;;;13.90;99.90;;;;;;5053670;28;20194;-63
2023/10/29 08:13:29;;;;;;;3.88;2.55;;;13.90;99.90;;;;;;5053874;28;20204;-62
2023/10/29 08:15:55;;;;;;;3.10;2.40;;;13.90;99.90;;;;;;5053976;28;20174;-63
2023/10/29 08:18:21;;;;;;;2.50;2.30;;;14.00;99.90;;;;;;5053934;28;20158;-62
2023/10/29 08:20:47;;;;;;;4.03;2.78;;;14.10;99.90;;;;;;5054002;28;20745;-63
2023/10/29 08:23:13;;;;;;;5.93;2.38;;;14.20;99.90;;;;;;5053749;28;20202;-63
2023/10/29 08:25:39;;;;;;;2.85;2.33;;;14.20;99.90;;;;;;5053832;28;20360;-62
2023/10/29 08:28:08;;;;;;;3.17;2.25;;;14.20;99.90;;;;;;5058177;28;20177;-63
2023/10/29 08:30:34;;;;;;;2.72;2.30;;;14.30;99.90;;;;;;5073860;28;20182;-63
2023/10/29 08:33:00;;;;;;;3.50;2.53;;;14.30;99.90;;;;;;5073869;28;20247;-64
2023/10/29 08:35:26;;;;;;;2.50;2.17;;;14.30;99.90;;;;;;5061871;28;20530;-63
2023/10/29 08:37:51;;;;;;;2.33;2.20;;;14.30;99.90;;;;;;5054094;28;20537;-64
2023/10/29 08:40:17;;;;;;;5.95;2.40;;;14.30;99.90;;;;;;5053745;28;20182;-63
2023/10/29 08:42:43;;;;;;;2.28;2.17;;;14.30;99.90;;;;;;5053115;28;20257;-64
2023/10/29 08:45:09;;;;;;;2.45;2.22;;;14.30;99.90;;;;;;5053769;28;20163;-63
2023/10/29 08:47:36;;;;;;;2.30;2.20;;;14.30;99.90;;;;;;5053340;28;20166;-62
2023/10/29 08:50:03;;;;;;;2.40;2.20;;;14.30;99.90;;;;;;5053907;28;20193;-62
2023/10/29 08:52:29;;;;;;;3.05;2.45;;;14.30;99.90;;;;;;5051929;28;20206;-64
2023/10/29 08:54:54;;;;;;;2.47;2.28;;;14.30;99.90;;;;;;5053196;28;20178;-64
2023/10/29 08:57:21;;;;;;;6.72;2.90;;;14.30;99.90;;;;;;5053094;28;20184;-63
2023/10/29 08:59:47;;;;;;;4.93;2.40;;;14.40;99.90;;;;;;5071499;28;20181;-66
2023/10/29 09:02:13;;;;;;;3.13;2.83;;;14.40;99.90;;;;;;5072979;28;20241;-66
2023/10/29 09:04:39;;;;;;;3.40;2.30;;;14.50;99.90;;;;;;5067865;28;20659;-63
2023/10/29 09:07:05;;;;;;;3.58;2.33;;;14.50;99.90;;;;;;5053129;28;20178;-66
2023/10/29 09:09:31;;;;;;;4.97;2.40;;;14.50;99.90;;;;;;5051424;28;20182;-66
2023/10/29 09:11:58;;;;;;;2.67;2.47;;;14.50;99.90;;;;;;5052938;28;20194;-66
2023/10/29 09:14:23;;;;;;;3.00;2.42;;;14.50;99.90;;;;;;5053667;28;20201;-65
2023/10/29 09:16:49;;;;;;;6.43;2.70;;;14.40;99.90;;;;;;5051808;28;20582;-66
2023/10/29 09:19:15;;;;;;;3.25;2.45;;;14.40;99.90;;;;;;5051853;28;20174;-64
2023/10/29 09:21:44;;;;;;;3.00;2.60;;;14.40;99.90;;;;;;5051831;28;20210;-67
2023/10/29 09:24:09;;;;;;;4.53;2.40;;;14.40;99.90;;;;;;5053025;28;20186;-66
2023/10/29 09:26:40;;;;;;;2.72;2.47;;;14.40;99.90;;;;;;5052904;28;20225;-65
2023/10/29 09:29:08;;;;;;;3.80;2.40;;;14.40;99.90;;;;;;5065692;28;20705;-64
2023/10/29 09:31:34;;;;;;;4.00;2.25;;;14.40;99.90;;;;;;5072987;28;20192;-64
2023/10/29 09:34:01;;;;;;;2.88;2.47;;;14.40;99.90;;;;;;5072855;28;20178;-65
2023/10/29 09:36:27;;;;;;;4.35;2.30;;;14.40;99.90;;;;;;5053151;28;20189;-66
2023/10/29 09:38:53;;;;;;;2.53;2.33;;;14.40;99.90;;;;;;5053264;28;20178;-66
2023/10/29 09:41:19;;;;;;;6.55;2.58;;;14.40;99.90;;;;;;5052692;28;20201;-65
2023/10/29 09:43:46;;;;;;;3.72;2.70;;;14.40;99.90;;;;;;5052727;28;20198;-67
2023/10/29 09:46:12;;;;;;;2.60;2.40;;;14.40;99.90;;;;;;5052801;28;20170;-64
2023/10/29 09:48:39;;;;;;;3.08;2.45;;;14.40;99.90;;;;;;5052778;28;20228;-65
2023/10/29 09:51:06;;;;;;;4.32;2.40;;;14.40;99.90;;;;;;5052681;28;20687;-66
2023/10/29 09:53:35;;;;;;;2.42;2.17;;;14.50;99.90;;;;;;5052645;28;20175;-64
2023/10/29 09:56:00;;;;;;;2.50;2.30;;;14.50;99.90;;;;;;5052423;28;20249;-65
2023/10/29 09:58:27;;;;;;;4.15;2.42;;;14.50;99.90;;;;;;5059777;28;20307;-65
2023/10/29 10:00:53;;;;;;;2.80;2.45;;;14.50;99.90;;;;;;5071232;28;20240;-63
2023/10/29 10:03:20;;;;;;;5.32;2.50;;;14.50;99.90;;;;;;5072864;28;20728;-66
2023/10/29 10:05:47;;;;;;;4.28;2.42;;;14.40;99.90;;;;;;5056929;28;20212;-66
2023/10/29 10:08:13;;;;;;;4.85;2.90;;;14.40;99.90;;;;;;5052540;28;20177;-67
2023/10/29 10:10:43;;;;;;;3.20;2.50;;;14.40;99.90;;;;;;5052588;28;20190;-65
2023/10/29 10:13:10;;;;;;;3.20;2.20;;;14.40;99.90;;;;;;5052298;28;20228;-65
2023/10/29 10:15:39;;;;;;;2.70;2.50;;;14.30;99.90;;;;;;5051287;28;20555;-67
2023/10/29 10:18:05;;;;;;;2.50;2.30;;;14.40;99.90;;;;;;5052519;28;20526;-65
2023/10/29 10:20:32;;;;;;;3.28;2.40;;;14.40;99.90;;;;;;5052845;28;20261;-65
2023/10/29 10:22:59;;;;;;;3.58;2.40;;;14.60;99.90;;;;;;5055231;28;20190;-65
2023/10/29 10:25:27;;;;;;;5.20;2.40;;;14.90;99.90;;;;;;5056247;28;20177;-65
2023/10/29 10:27:55;;;;;;;3.55;2.40;;;15.10;99.90;;;;;;5058394;28;20178;-65
2023/10/29 10:30:29;;;;;;;2.88;2.30;;;15.20;99.90;;;;;;5076270;28;20193;-66
2023/10/29 10:33:07;;;;;;;2.50;2.30;;;15.30;99.90;;;;;;5076466;28;20154;-65
2023/10/29 10:35:50;;;;;;;3.47;2.50;;;15.40;99.90;;;;;;5063880;28;20186;-65
2023/10/29 10:38:19;;;;;;;2.40;2.20;;;15.30;99.90;;;;;;5056252;28;20163;-65
2023/10/29 10:40:46;;;;;;;2.70;2.38;;;15.20;99.90;;;;;;5056533;28;20194;-65
2023/10/29 10:43:18;;;;;;;2.33;2.20;;;15.00;99.90;;;;;;5055731;28;20186;-63
2023/10/29 10:45:50;;;;;;;2.85;2.15;;;14.90;99.90;;;;;;5056246;28;20237;-63
2023/10/29 10:48:17;;;;;;;2.85;2.40;;;14.90;99.90;;;;;;5056118;28;20238;-65
2023/10/29 10:50:43;;;;;;;5.57;2.40;;;14.90;99.90;;;;;;5055685;28;20449;-65
2023/10/29 10:53:10;;;;;;;4.15;2.25;;;14.90;99.90;;;;;;5055622;28;20167;-66
2023/10/29 10:55:36;;;;;;;5.75;2.30;;;14.90;99.90;;;;;;5055657;28;20675;-66
2023/10/29 10:58:03;;;;;;;2.40;2.20;;;14.90;99.90;;;;;;5059129;28;20665;-66
2023/10/29 11:00:34;;;;;;;2.67;2.33;;;14.90;99.90;;;;;;5075305;28;20225;-66
2023/10/29 11:03:01;;;;;;;4.20;2.63;;;15.20;99.90;;;;;;5074130;28;20577;-65
2023/10/29 11:05:32;;;;;;;3.70;2.00;;;15.40;99.90;;;;;;5063658;28;20563;-65
2023/10/29 11:07:58;;;;;;;2.95;2.60;;;15.40;99.90;;;;;;5055338;28;20163;-66
2023/10/29 11:10:28;;;;;;;2.30;2.10;;;15.30;99.90;;;;;;5055827;28;20167;-63
2023/10/29 11:12:54;;;;;;;4.47;2.47;;;15.00;99.90;;;;;;5054949;28;20216;-64
2023/10/29 11:15:21;;;;;;;5.38;2.10;;;14.80;99.90;;;;;;5055216;28;20198;-63
2023/10/29 11:17:58;;;;;;;4.07;2.42;;;14.70;99.90;;;;;;5055619;28;20599;-66
2023/10/29 11:20:41;;;;;;;4.35;2.20;;;14.60;99.90;;;;;;5054906;28;20174;-64
2023/10/29 11:23:13;;;;;;;2.33;2.15;;;14.60;99.90;;;;;;5055378;28;20186;-65
2023/10/29 11:25:41;;;;;;;3.00;2.67;;;14.60;99.90;;;;;;5053743;28;20181;-66
2023/10/29 11:28:33;;;;;;;4.07;2.47;;;14.60;99.90;;;;;;5057886;28;20186;-65
2023/10/29 11:31:15;;;;;;;4.97;2.65;;;14.60;99.90;;;;;;5073549;28;20198;-65
2023/10/29 11:34:27;;;;;;;3.55;2.20;;;14.70;99.90;;;;;;5074470;28;20254;-65
2023/10/29 11:36:53;;;;;;;3.53;2.42;;;14.60;99.90;;;;;;5053088;28;20548;-63
2023/10/29 11:39:28;;;;;;;2.33;2.13;;;14.60;99.90;;;;;;5054995;28;20182;-65
2023/10/29 11:41:55;;;;;;;3.15;2.30;;;14.60;99.90;;;;;;5054460;28;20216;-63
2023/10/29 11:44:25;;;;;;;4.75;2.40;;;14.60;99.90;;;;;;5054870;28;20601;-65
2023/10/29 11:47:02;;;;;;;2.78;2.20;;;14.60;99.90;;;;;;5055164;28;20169;-63
2023/10/29 11:49:46;;;;;;;3.10;2.30;;;14.60;99.90;;;;;;5054580;28;20174;-64
2023/10/29 11:52:12;;;;;;;2.70;2.50;;;14.50;99.90;;;;;;5053125;28;20678;-64
2023/10/29 11:54:38;;;;;;;2.40;2.20;;;14.50;99.90;;;;;;5053184;28;20187;-64
2023/10/29 11:57:06;;;;;;;3.05;2.38;;;14.40;99.90;;;;;;5054230;28;20178;-66
2023/10/29 11:59:32;;;;;;;2.50;2.13;;;14.40;99.90;;;;;;5070573;28;20553;-65
2023/10/29 12:01:58;;;;;;;3.00;2.10;;;14.40;99.90;;;;;;5074214;28;20224;-65
2023/10/29 12:04:30;;;;;;;6.03;2.30;;;14.30;99.90;;;;;;5069796;28;20636;-64
2023/10/29 12:06:56;;;;;;;2.75;2.33;;;14.30;99.90;;;;;;5052931;28;20548;-65
2023/10/29 12:09:24;;;;;;;4.32;2.78;;;14.20;99.90;;;;;;5054150;28;20167;-65
2023/10/29 12:11:52;;;;;;;2.20;2.10;;;14.20;99.90;;;;;;5053731;28;20186;-65
2023/10/29 12:14:39;;;;;;;4.05;2.80;;;14.10;99.90;;;;;;5054354;28;20174;-66
2023/10/29 12:17:05;;;;;;;4.35;2.92;;;14.00;99.90;;;;;;5052754;28;20166;-65
2023/10/29 12:19:35;;;;;;;5.03;3.78;;;14.00;99.90;;;;;;5053857;28;20171;-66
2023/10/29 12:22:03;;;;;;;16.15;10.20;;;14.00;99.90;;;;;;5053928;28;20190;-66
2023/10/29 12:24:30;;;;;;;4.13;2.80;;;14.10;99.90;;;;;;5053720;28;20194;-66
2023/10/29 12:26:57;;;;;;;2.53;2.28;;;14.00;99.90;;;;;;5053526;28;20193;-66
2023/10/29 12:29:23;;;;;;;3.67;2.60;;;14.10;99.90;;;;;;5068783;28;20724;-66
2023/10/29 12:31:49;;;;;;;2.63;2.42;;;14.00;99.90;;;;;;5073530;28;20193;-65
2023/10/29 12:34:15;;;;;;;4.03;2.75;;;14.00;99.90;;;;;;5070508;28;20558;-65
2023/10/29 12:36:48;;;;;;;6.53;2.83;;;13.90;99.90;;;;;;5052394;28;20184;-65
2023/10/29 12:39:14;;;;;;;5.25;4.30;;;13.90;99.90;;;;;;5053706;28;20170;-65
2023/10/29 12:41:40;;;;;;;4.70;4.05;;;13.80;99.90;;;;;;5053165;28;20219;-64
2023/10/29 12:44:15;;;;;;;3.38;3.08;;;13.70;99.90;;;;;;5053550;28;20705;-66
2023/10/29 12:46:51;;;;;;;5.75;3.15;;;13.70;99.90;;;;;;5054081;28;20513;-65